Time;durP1;ratioP1;P1;durP2;ratioP2;P2;SDS_P1;SDS_P2;PMS_P1;PMS_P2;Temp;Humidity;BMP_temperature;BMP_pressure;BME280_temperature;BME280_humidity;BME280_pressure;Samples;Min_cycle;Max_cycle;Signal;HPM_P1;HPM_P2
2023/08/04 00:00:19;;;;;;;12.38;5.25;;;16.80;99.90;;;;;;5025657;28;20017;-46
2023/08/04 00:02:45;;;;;;;11.77;5.13;;;16.80;99.90;;;;;;5025250;28;20032;-48
2023/08/04 00:05:11;;;;;;;12.35;5.10;;;16.80;99.90;;;;;;5008742;28;20075;-46
2023/08/04 00:07:37;;;;;;;8.85;4.93;;;16.80;99.90;;;;;;5026218;28;20066;-46
2023/08/04 00:10:03;;;;;;;10.63;5.10;;;16.80;99.90;;;;;;5026144;28;20478;-46
2023/08/04 00:12:29;;;;;;;9.43;5.47;;;16.80;99.90;;;;;;5023116;28;20052;-45
2023/08/04 00:14:55;;;;;;;8.27;5.05;;;16.80;99.90;;;;;;5025202;28;20030;-46
2023/08/04 00:17:21;;;;;;;13.20;5.72;;;16.80;99.90;;;;;;5031579;28;20420;-46
2023/08/04 00:19:46;;;;;;;11.55;5.35;;;16.80;99.90;;;;;;5031705;28;20138;-45
2023/08/04 00:22:12;;;;;;;11.27;5.57;;;16.70;99.90;;;;;;5031711;28;20365;-46
2023/08/04 00:24:37;;;;;;;14.27;6.20;;;16.70;99.90;;;;;;5031163;28;20055;-46
2023/08/04 00:27:03;;;;;;;7.03;5.25;;;16.70;99.90;;;;;;5031619;28;20103;-46
2023/08/04 00:29:29;;;;;;;10.25;5.80;;;16.70;99.90;;;;;;5031711;28;20383;-46
2023/08/04 00:31:55;;;;;;;10.98;5.75;;;16.70;99.90;;;;;;5031525;28;20025;-45
2023/08/04 00:34:20;;;;;;;13.70;6.57;;;16.70;99.90;;;;;;5030953;28;20242;-47
2023/08/04 00:36:47;;;;;;;12.00;6.03;;;16.60;99.90;;;;;;5031379;28;20029;-48
2023/08/04 00:39:16;;;;;;;20.10;6.10;;;16.60;99.90;;;;;;5031787;28;20040;-46
2023/08/04 00:41:42;;;;;;;12.05;6.05;;;16.60;99.90;;;;;;5030540;28;20121;-46
2023/08/04 00:44:08;;;;;;;14.65;6.57;;;16.50;99.90;;;;;;5030653;28;20089;-47
2023/08/04 00:46:34;;;;;;;17.33;6.55;;;16.60;99.90;;;;;;5029893;28;20057;-45
2023/08/04 00:49:01;;;;;;;14.00;6.72;;;16.50;99.90;;;;;;5031664;28;20029;-45
2023/08/04 00:51:27;;;;;;;14.13;6.85;;;16.50;99.90;;;;;;5031024;28;20042;-46
2023/08/04 00:53:53;;;;;;;12.98;6.88;;;16.50;99.90;;;;;;5030449;28;20092;-48
2023/08/04 00:56:18;;;;;;;14.38;5.45;;;16.50;99.90;;;;;;5012989;28;20105;-46
2023/08/04 00:58:44;;;;;;;15.27;6.43;;;16.50;99.90;;;;;;5013105;28;20223;-46
2023/08/04 01:01:10;;;;;;;12.32;5.75;;;16.50;99.90;;;;;;5030930;28;20017;-48
2023/08/04 01:03:38;;;;;;;11.20;5.30;;;16.40;99.90;;;;;;5030372;28;20029;-47
2023/08/04 01:06:19;;;;;;;11.48;5.88;;;16.40;99.90;;;;;;5031190;28;20095;-45
2023/08/04 01:08:56;;;;;;;11.82;6.20;;;16.40;99.90;;;;;;5030999;28;20032;-48
2023/08/04 01:11:29;;;;;;;16.95;6.40;;;16.50;99.90;;;;;;5030930;28;20025;-46
2023/08/04 01:13:55;;;;;;;13.32;6.43;;;16.50;99.90;;;;;;5030189;28;20533;-46
2023/08/04 01:16:21;;;;;;;12.52;5.65;;;16.40;99.90;;;;;;5012983;28;20159;-46
2023/08/04 01:18:46;;;;;;;13.90;5.95;;;16.40;99.90;;;;;;5031042;28;20104;-47
2023/08/04 01:21:12;;;;;;;17.45;6.07;;;16.50;99.90;;;;;;5030607;28;20021;-45
2023/08/04 01:23:37;;;;;;;12.75;6.05;;;16.50;99.90;;;;;;5030080;28;20399;-45
2023/08/04 01:26:06;;;;;;;10.43;5.53;;;16.50;99.90;;;;;;5030478;28;20021;-45
2023/08/04 01:28:33;;;;;;;9.82;6.15;;;16.50;99.90;;;;;;5030480;28;20456;-45
2023/08/04 01:31:00;;;;;;;13.43;5.80;;;16.40;99.90;;;;;;5030376;28;20018;-45
2023/08/04 01:33:28;;;;;;;10.63;5.30;;;16.50;99.90;;;;;;5030145;28;20033;-46
2023/08/04 01:35:53;;;;;;;16.58;6.05;;;16.40;99.90;;;;;;5030475;28;20018;-45
2023/08/04 01:38:19;;;;;;;15.02;5.72;;;16.40;99.90;;;;;;5030412;28;20094;-46
2023/08/04 01:40:44;;;;;;;11.35;5.88;;;16.40;99.90;;;;;;5030126;28;20025;-47
2023/08/04 01:43:10;;;;;;;16.00;6.65;;;16.40;99.90;;;;;;5029865;28;20017;-46
2023/08/04 01:45:35;;;;;;;16.30;6.38;;;16.40;99.90;;;;;;5030134;28;20057;-45
2023/08/04 01:48:01;;;;;;;18.83;6.57;;;16.40;99.90;;;;;;5030207;28;20048;-45
2023/08/04 01:50:26;;;;;;;18.15;6.05;;;16.40;99.90;;;;;;5030055;28;20338;-45
2023/08/04 01:52:53;;;;;;;15.07;6.20;;;16.40;99.90;;;;;;5028387;28;20034;-45
2023/08/04 01:55:19;;;;;;;16.80;5.97;;;16.40;99.90;;;;;;5030037;28;20024;-45
2023/08/04 01:57:44;;;;;;;16.88;6.18;;;16.30;99.90;;;;;;5029952;28;20022;-46
2023/08/04 02:00:11;;;;;;;13.43;5.40;;;16.30;99.90;;;;;;5029833;28;20515;-45
2023/08/04 02:02:36;;;;;;;17.05;6.05;;;16.30;99.90;;;;;;5029368;28;20064;-45
2023/08/04 02:05:02;;;;;;;13.50;5.93;;;16.30;99.90;;;;;;5029889;28;20045;-45
2023/08/04 02:07:27;;;;;;;15.93;5.57;;;16.30;99.90;;;;;;5029792;28;20029;-45
2023/08/04 02:09:53;;;;;;;13.18;5.63;;;16.30;99.90;;;;;;5029749;28;20376;-46
2023/08/04 02:12:18;;;;;;;10.85;5.68;;;16.30;99.90;;;;;;5028015;28;20068;-46
2023/08/04 02:14:44;;;;;;;14.02;6.22;;;16.30;99.90;;;;;;5029284;28;20025;-45
2023/08/04 02:17:11;;;;;;;22.75;6.93;;;16.30;99.90;;;;;;5028311;28;20033;-45
2023/08/04 02:19:37;;;;;;;17.15;5.43;;;16.30;99.90;;;;;;5029796;28;20019;-47
2023/08/04 02:22:03;;;;;;;13.20;6.38;;;16.30;99.90;;;;;;5029426;28;20082;-45
2023/08/04 02:24:29;;;;;;;13.90;5.82;;;16.30;99.90;;;;;;5028860;28;20172;-47
2023/08/04 02:26:54;;;;;;;14.13;6.40;;;16.30;99.90;;;;;;5029064;28;20030;-47
2023/08/04 02:29:20;;;;;;;11.30;4.68;;;16.30;99.90;;;;;;5029277;28;20165;-45
2023/08/04 02:31:45;;;;;;;16.60;6.13;;;16.30;99.90;;;;;;5029113;28;20038;-46
2023/08/04 02:34:11;;;;;;;9.63;5.32;;;16.30;99.90;;;;;;5028890;28;20125;-46
2023/08/04 02:36:36;;;;;;;14.80;5.88;;;16.30;99.90;;;;;;5029155;28;20376;-45
2023/08/04 02:39:02;;;;;;;10.50;5.38;;;16.30;99.90;;;;;;5029564;28;20022;-46
2023/08/04 02:41:27;;;;;;;16.45;5.97;;;16.30;99.90;;;;;;5029240;28;20439;-46
2023/08/04 02:43:53;;;;;;;17.42;6.28;;;16.30;99.90;;;;;;5027276;28;20488;-45
2023/08/04 02:46:20;;;;;;;12.48;5.93;;;16.20;99.90;;;;;;5029217;28;20021;-46
2023/08/04 02:48:46;;;;;;;13.35;5.55;;;16.30;99.90;;;;;;5028883;28;20021;-46
2023/08/04 02:51:15;;;;;;;13.43;5.43;;;16.20;99.90;;;;;;5029026;28;20056;-45
2023/08/04 02:53:43;;;;;;;16.98;6.95;;;16.20;99.90;;;;;;5010698;28;20017;-46
2023/08/04 02:56:11;;;;;;;17.25;5.75;;;16.20;99.90;;;;;;5028780;28;20010;-45
2023/08/04 02:58:37;;;;;;;10.95;4.95;;;16.20;99.90;;;;;;5028790;28;20056;-45
2023/08/04 03:01:03;;;;;;;12.75;5.40;;;16.20;99.90;;;;;;5028993;28;20346;-46
2023/08/04 03:03:30;;;;;;;13.82;5.45;;;16.20;99.90;;;;;;5028088;28;20053;-45
2023/08/04 03:06:00;;;;;;;12.75;6.03;;;16.20;99.90;;;;;;5029201;28;20155;-48
2023/08/04 03:08:26;;;;;;;16.48;7.15;;;16.20;99.90;;;;;;5028704;28;20030;-46
2023/08/04 03:10:52;;;;;;;12.45;5.65;;;16.20;99.90;;;;;;5028544;28;20041;-46
2023/08/04 03:13:17;;;;;;;11.73;5.22;;;16.20;99.90;;;;;;5028304;28;20386;-46
2023/08/04 03:15:43;;;;;;;12.98;5.60;;;16.20;99.90;;;;;;5028896;28;20071;-45
2023/08/04 03:18:08;;;;;;;16.50;5.97;;;16.20;99.90;;;;;;5028699;28;20139;-46
2023/08/04 03:20:39;;;;;;;10.57;5.97;;;16.10;99.90;;;;;;5028405;28;20500;-46
2023/08/04 03:23:06;;;;;;;15.88;6.72;;;16.20;99.90;;;;;;5028097;28;20112;-47
2023/08/04 03:25:32;;;;;;;18.20;6.38;;;16.20;99.90;;;;;;5028463;28;20101;-46
2023/08/04 03:27:57;;;;;;;15.05;6.57;;;16.10;99.90;;;;;;5028359;28;20517;-46
2023/08/04 03:30:23;;;;;;;10.50;5.88;;;16.10;99.90;;;;;;5025839;28;20041;-45
2023/08/04 03:32:49;;;;;;;11.30;6.00;;;16.10;99.90;;;;;;5027274;28;20045;-45
2023/08/04 03:35:15;;;;;;;13.15;5.38;;;16.20;99.90;;;;;;5029050;28;20017;-45
2023/08/04 03:37:40;;;;;;;9.32;5.78;;;16.10;99.90;;;;;;5028252;28;20013;-46
2023/08/04 03:40:07;;;;;;;8.10;5.50;;;16.10;99.90;;;;;;5028303;28;20387;-45
2023/08/04 03:42:36;;;;;;;11.50;5.53;;;16.20;99.90;;;;;;5027460;28;20060;-46
2023/08/04 03:45:02;;;;;;;16.77;5.90;;;16.20;99.90;;;;;;5026737;28;20025;-45
2023/08/04 03:47:29;;;;;;;13.35;6.43;;;16.20;99.90;;;;;;5027887;28;20040;-45
2023/08/04 03:49:55;;;;;;;16.70;5.32;;;16.20;99.90;;;;;;5028019;28;20029;-45
2023/08/04 03:52:20;;;;;;;12.38;5.28;;;16.10;99.90;;;;;;5027923;28;20030;-45
2023/08/04 03:54:46;;;;;;;22.63;6.20;;;16.20;99.90;;;;;;5028164;28;20458;-46
2023/08/04 03:57:11;;;;;;;12.88;5.75;;;16.20;99.90;;;;;;5028504;28;20398;-46
2023/08/04 03:59:37;;;;;;;10.45;5.35;;;16.10;99.90;;;;;;5010516;28;20121;-45
2023/08/04 04:02:02;;;;;;;14.18;5.78;;;16.10;99.90;;;;;;5028146;28;20072;-45
2023/08/04 04:04:28;;;;;;;12.95;5.45;;;16.10;99.90;;;;;;5027754;28;20052;-45
2023/08/04 04:06:53;;;;;;;12.10;5.32;;;16.10;99.90;;;;;;5028059;28;20086;-45
2023/08/04 04:09:19;;;;;;;15.02;5.43;;;16.20;99.90;;;;;;5028187;28;20476;-46
2023/08/04 04:11:44;;;;;;;16.98;5.50;;;16.10;99.90;;;;;;5028244;28;20044;-45
2023/08/04 04:14:10;;;;;;;16.88;5.70;;;16.20;99.90;;;;;;5027442;28;20528;-45
2023/08/04 04:16:36;;;;;;;14.18;5.95;;;16.10;99.90;;;;;;5030335;28;20030;-45
2023/08/04 04:19:01;;;;;;;12.20;5.13;;;16.10;99.90;;;;;;5014159;28;20025;-45
2023/08/04 04:21:27;;;;;;;12.02;5.43;;;16.20;99.90;;;;;;5031387;28;20666;-46
2023/08/04 04:23:53;;;;;;;10.30;4.95;;;16.10;99.90;;;;;;5011964;28;20040;-45
2023/08/04 04:26:18;;;;;;;9.70;4.13;;;16.10;99.90;;;;;;5031387;28;20041;-46
2023/08/04 04:28:44;;;;;;;11.82;5.60;;;16.10;99.90;;;;;;5013904;28;20025;-46
2023/08/04 04:31:09;;;;;;;15.95;5.47;;;16.10;99.90;;;;;;5013724;28;20029;-46
2023/08/04 04:33:34;;;;;;;16.92;5.25;;;16.00;99.90;;;;;;5030917;28;20029;-47
2023/08/04 04:36:00;;;;;;;16.83;4.72;;;16.10;99.90;;;;;;5031144;28;20427;-46
2023/08/04 04:38:28;;;;;;;13.82;5.80;;;16.00;99.90;;;;;;5013704;28;20057;-46
2023/08/04 04:40:57;;;;;;;11.07;4.40;;;16.10;99.90;;;;;;5031454;28;20028;-46
2023/08/04 04:43:23;;;;;;;10.88;4.55;;;16.00;99.90;;;;;;5013446;28;20100;-46
2023/08/04 04:45:50;;;;;;;13.10;4.97;;;16.00;99.90;;;;;;5031426;28;20130;-45
2023/08/04 04:48:17;;;;;;;19.92;6.32;;;16.10;99.90;;;;;;5031023;28;20475;-46
2023/08/04 04:50:43;;;;;;;12.50;5.57;;;16.00;99.90;;;;;;5030960;28;20053;-46
2023/08/04 04:53:08;;;;;;;15.43;6.00;;;16.10;99.90;;;;;;5030204;28;20049;-46
2023/08/04 04:55:34;;;;;;;15.02;5.88;;;16.10;99.90;;;;;;5031176;28;20093;-45
2023/08/04 04:57:59;;;;;;;14.85;6.13;;;16.10;99.90;;;;;;5031360;28;20076;-47
2023/08/04 05:00:25;;;;;;;9.55;4.43;;;16.10;99.90;;;;;;5031006;28;20032;-46
2023/08/04 05:02:50;;;;;;;15.10;6.28;;;16.10;99.90;;;;;;5012689;28;20627;-46
2023/08/04 05:05:16;;;;;;;11.15;5.70;;;16.10;99.90;;;;;;5031204;28;20057;-48
2023/08/04 05:07:41;;;;;;;17.92;5.78;;;16.20;99.90;;;;;;5030594;28;20063;-45
2023/08/04 05:10:08;;;;;;;17.88;6.18;;;16.20;99.90;;;;;;5030698;28;20076;-46
2023/08/04 05:12:33;;;;;;;14.95;6.30;;;16.20;99.90;;;;;;5030383;28;20076;-45
2023/08/04 05:14:59;;;;;;;19.73;6.38;;;16.20;99.90;;;;;;5030645;28;20130;-45
2023/08/04 05:17:25;;;;;;;13.95;6.50;;;16.30;99.90;;;;;;5030757;28;20546;-45
2023/08/04 05:19:50;;;;;;;13.88;6.55;;;16.30;99.90;;;;;;5030356;28;20097;-45
2023/08/04 05:22:16;;;;;;;9.65;5.50;;;16.30;99.90;;;;;;5030437;28;20041;-46
2023/08/04 05:24:41;;;;;;;14.20;6.07;;;16.30;99.90;;;;;;5030127;28;20025;-45
2023/08/04 05:27:07;;;;;;;15.50;5.75;;;16.40;99.90;;;;;;5030396;28;20028;-46
2023/08/04 05:29:33;;;;;;;10.25;5.57;;;16.30;99.90;;;;;;5030554;28;20024;-46
2023/08/04 05:31:58;;;;;;;14.05;6.07;;;16.30;99.90;;;;;;5012360;28;20091;-45
2023/08/04 05:34:24;;;;;;;13.02;5.40;;;16.30;99.90;;;;;;5010731;28;20034;-46
2023/08/04 05:36:49;;;;;;;10.77;5.70;;;16.40;99.90;;;;;;5029824;28;20522;-47
2023/08/04 05:39:15;;;;;;;18.58;6.10;;;16.40;99.90;;;;;;5030259;28;20030;-47
2023/08/04 05:41:42;;;;;;;14.43;6.18;;;16.40;99.90;;;;;;5011432;28;20017;-47
2023/08/04 05:44:08;;;;;;;10.60;5.90;;;16.50;99.90;;;;;;5027347;28;20153;-45
2023/08/04 05:46:34;;;;;;;16.80;6.05;;;16.50;99.90;;;;;;5030087;28;20480;-46
2023/08/04 05:48:59;;;;;;;10.50;5.65;;;16.50;99.90;;;;;;5013243;28;20033;-45
2023/08/04 05:51:25;;;;;;;9.88;4.60;;;16.50;99.90;;;;;;5030115;28;20036;-45
2023/08/04 05:53:50;;;;;;;12.00;5.00;;;16.60;99.90;;;;;;5029296;28;20112;-45
2023/08/04 05:56:16;;;;;;;12.82;5.88;;;16.60;99.90;;;;;;5011737;28;20395;-47
2023/08/04 05:58:41;;;;;;;13.80;5.45;;;16.70;99.90;;;;;;5010959;28;20033;-47
2023/08/04 06:01:07;;;;;;;13.07;5.80;;;16.70;99.90;;;;;;5030289;28;20025;-46
2023/08/04 06:03:32;;;;;;;15.05;4.68;;;16.80;99.90;;;;;;5029649;28;20049;-46
2023/08/04 06:05:58;;;;;;;10.70;5.45;;;16.80;99.90;;;;;;5029715;28;20088;-45
2023/08/04 06:08:24;;;;;;;16.33;5.15;;;16.90;99.90;;;;;;5029707;28;20043;-45
2023/08/04 06:10:50;;;;;;;10.98;5.05;;;17.00;99.90;;;;;;5029503;28;20403;-46
2023/08/04 06:13:15;;;;;;;15.60;5.45;;;17.10;99.90;;;;;;5029165;28;20028;-46
2023/08/04 06:15:41;;;;;;;10.00;4.28;;;17.20;99.90;;;;;;5029647;28;20468;-46
2023/08/04 06:18:06;;;;;;;17.08;5.70;;;17.30;99.90;;;;;;5029363;28;20013;-46
2023/08/04 06:20:33;;;;;;;14.60;4.50;;;17.40;99.90;;;;;;5029298;28;20193;-46
2023/08/04 06:22:58;;;;;;;9.80;3.88;;;17.40;99.90;;;;;;5028664;28;20480;-47
2023/08/04 06:25:24;;;;;;;13.23;5.07;;;17.50;99.90;;;;;;5029540;28;20035;-47
2023/08/04 06:27:50;;;;;;;15.75;4.32;;;17.50;99.90;;;;;;5029261;28;20061;-46
2023/08/04 06:30:15;;;;;;;16.10;5.38;;;17.60;99.90;;;;;;5029295;28;20503;-46
2023/08/04 06:32:42;;;;;;;12.93;4.80;;;17.70;99.90;;;;;;5028437;28;20037;-46
2023/08/04 06:35:08;;;;;;;11.00;4.22;;;17.80;99.90;;;;;;5029170;28;20108;-47
2023/08/04 06:37:34;;;;;;;10.00;4.45;;;17.90;99.90;;;;;;5028981;28;20097;-47
2023/08/04 06:40:00;;;;;;;10.50;3.67;;;18.00;99.90;;;;;;5028745;28;20014;-46
2023/08/04 06:42:25;;;;;;;13.45;4.40;;;18.10;99.90;;;;;;5029201;28;20028;-46
2023/08/04 06:44:51;;;;;;;6.93;4.18;;;18.10;99.90;;;;;;5029190;28;20203;-46
2023/08/04 06:47:17;;;;;;;10.77;4.32;;;18.10;99.90;;;;;;5029012;28;20009;-47
2023/08/04 06:49:43;;;;;;;8.00;3.97;;;18.10;99.90;;;;;;5029076;28;20029;-48
2023/08/04 06:52:08;;;;;;;10.30;3.83;;;18.00;99.90;;;;;;5028930;28;20014;-48
2023/08/04 06:54:35;;;;;;;9.80;4.20;;;18.10;99.90;;;;;;5027986;28;20033;-47
2023/08/04 06:57:01;;;;;;;11.35;3.90;;;18.20;99.90;;;;;;5028417;28;20472;-47
2023/08/04 06:59:26;;;;;;;9.15;4.13;;;18.30;99.90;;;;;;5028814;28;20475;-47
2023/08/04 07:01:52;;;;;;;11.55;3.70;;;18.40;99.90;;;;;;5028386;28;20029;-46
2023/08/04 07:04:18;;;;;;;9.73;3.83;;;18.40;99.90;;;;;;5010166;28;20108;-46
2023/08/04 07:06:43;;;;;;;12.18;3.70;;;18.40;99.90;;;;;;5010870;28;20049;-47
2023/08/04 07:09:09;;;;;;;9.27;3.20;;;18.50;99.90;;;;;;5028556;28;20396;-46
2023/08/04 07:11:34;;;;;;;8.25;3.63;;;18.60;99.90;;;;;;5028660;28;20029;-47
2023/08/04 07:14:00;;;;;;;9.88;3.25;;;18.70;99.90;;;;;;5028234;28;20101;-47
2023/08/04 07:16:25;;;;;;;6.72;3.30;;;18.90;99.90;;;;;;5028674;28;20036;-46
2023/08/04 07:18:51;;;;;;;15.20;3.55;;;18.90;99.90;;;;;;5010906;28;20040;-48
2023/08/04 07:21:16;;;;;;;9.32;3.22;;;19.00;99.90;;;;;;5028537;28;20029;-47
2023/08/04 07:23:42;;;;;;;7.30;3.78;;;19.20;99.90;;;;;;5028130;28;20029;-47
2023/08/04 07:26:09;;;;;;;11.23;3.78;;;19.30;99.90;;;;;;5028495;28;20100;-48
2023/08/04 07:28:35;;;;;;;8.65;3.53;;;19.30;99.90;;;;;;5010787;28;20025;-46
2023/08/04 07:31:05;;;;;;;11.65;3.47;;;19.30;99.90;;;;;;5027958;28;20338;-46
2023/08/04 07:33:30;;;;;;;10.60;3.35;;;19.10;99.90;;;;;;5027461;28;20022;-50
2023/08/04 07:35:57;;;;;;;4.40;2.90;;;19.00;99.90;;;;;;5028336;28;20041;-47
2023/08/04 07:38:23;;;;;;;9.32;3.22;;;19.00;99.90;;;;;;5010627;28;20039;-46
2023/08/04 07:40:49;;;;;;;5.70;2.80;;;18.80;99.90;;;;;;5028193;28;20399;-46
2023/08/04 07:43:15;;;;;;;11.68;3.20;;;18.70;99.90;;;;;;5027900;28;20028;-47
2023/08/04 07:45:41;;;;;;;7.65;3.10;;;18.80;99.90;;;;;;5028180;28;20029;-46
2023/08/04 07:48:07;;;;;;;9.30;3.05;;;18.80;99.90;;;;;;5028444;28;20384;-47
2023/08/04 07:50:35;;;;;;;8.10;3.60;;;18.80;99.90;;;;;;5030854;28;20072;-46
2023/08/04 07:53:00;;;;;;;13.13;3.85;;;18.90;99.90;;;;;;5031879;28;20025;-46
2023/08/04 07:55:26;;;;;;;8.32;3.58;;;18.70;99.90;;;;;;5032168;28;20469;-46
2023/08/04 07:57:51;;;;;;;7.22;3.55;;;18.80;99.90;;;;;;5032113;28;20037;-46
2023/08/04 08:00:17;;;;;;;9.68;3.80;;;18.90;99.90;;;;;;5032238;28;20025;-46
2023/08/04 08:02:42;;;;;;;6.85;2.60;;;18.90;99.90;;;;;;5013426;28;20036;-46
2023/08/04 08:05:08;;;;;;;6.55;3.42;;;18.90;99.90;;;;;;5032035;28;20078;-49
2023/08/04 08:07:34;;;;;;;7.03;3.30;;;18.90;99.90;;;;;;5032173;28;20036;-47
2023/08/04 08:10:00;;;;;;;9.43;3.50;;;18.80;99.90;;;;;;5031948;28;20034;-46
2023/08/04 08:12:26;;;;;;;10.90;3.45;;;18.80;99.90;;;;;;5031517;28;20107;-47
2023/08/04 08:14:51;;;;;;;11.85;3.67;;;18.80;99.90;;;;;;5031360;28;20152;-47
2023/08/04 08:17:18;;;;;;;7.43;3.38;;;18.90;99.90;;;;;;5031955;28;20025;-46
2023/08/04 08:19:44;;;;;;;11.93;4.25;;;18.90;99.90;;;;;;5031937;28;20510;-48
2023/08/04 08:22:10;;;;;;;8.95;3.80;;;18.90;99.90;;;;;;5031644;28;20037;-50
2023/08/04 08:24:35;;;;;;;10.45;3.20;;;19.00;99.90;;;;;;5031330;28;20099;-49
2023/08/04 08:27:01;;;;;;;10.07;3.95;;;19.00;99.90;;;;;;5031685;28;20064;-47
2023/08/04 08:29:27;;;;;;;11.98;3.88;;;19.10;99.90;;;;;;5013678;28;20033;-47
2023/08/04 08:31:52;;;;;;;7.63;3.38;;;19.10;99.90;;;;;;5031553;28;20037;-46
2023/08/04 08:34:18;;;;;;;11.52;3.28;;;19.20;99.90;;;;;;5030872;28;20025;-47
2023/08/04 08:36:43;;;;;;;6.82;3.28;;;19.40;99.90;;;;;;5031471;28;20327;-46
2023/08/04 08:39:09;;;;;;;8.25;3.30;;;19.50;99.90;;;;;;5013638;28;20030;-46
2023/08/04 08:41:34;;;;;;;7.90;3.58;;;19.70;99.90;;;;;;5031831;28;20022;-47
2023/08/04 08:44:00;;;;;;;8.07;3.58;;;19.80;99.90;;;;;;5030575;28;20450;-47
2023/08/04 08:46:26;;;;;;;10.82;3.22;;;19.90;99.90;;;;;;5031264;28;20423;-45
2023/08/04 08:48:57;;;;;;;8.55;2.95;;;20.00;99.90;;;;;;5031355;28;20491;-46
2023/08/04 08:51:25;;;;;;;7.95;2.63;;;20.10;99.90;;;;;;5030171;28;20553;-47
2023/08/04 08:53:51;;;;;;;7.05;2.95;;;20.10;99.90;;;;;;5030456;28;20120;-47
2023/08/04 08:56:17;;;;;;;4.95;2.40;;;20.10;99.90;;;;;;5015836;28;20105;-47
2023/08/04 08:58:43;;;;;;;5.63;2.85;;;20.20;99.90;;;;;;5030918;28;20024;-46
2023/08/04 09:01:09;;;;;;;10.70;3.40;;;20.20;99.90;;;;;;5015013;28;20022;-47
2023/08/04 09:03:35;;;;;;;4.50;2.80;;;20.50;99.90;;;;;;5030701;28;20091;-50
2023/08/04 09:06:01;;;;;;;7.05;2.53;;;20.80;99.90;;;;;;5029749;28;20371;-48
2023/08/04 09:08:28;;;;;;;6.93;2.35;;;21.30;99.90;;;;;;5031051;28;20104;-46
2023/08/04 09:10:53;;;;;;;5.97;2.10;;;21.80;99.90;;;;;;5030045;28;20048;-47
2023/08/04 09:13:19;;;;;;;5.05;1.83;;;22.40;99.90;;;;;;5030034;28;20440;-48
2023/08/04 09:15:53;;;;;;;9.50;2.47;;;23.00;99.90;;;;;;5030714;28;20103;-50
2023/08/04 09:18:30;;;;;;;7.95;2.47;;;23.70;99.90;;;;;;5030559;28;20376;-47
2023/08/04 09:21:09;;;;;;;6.88;1.90;;;24.60;99.90;;;;;;5030671;28;20036;-47
2023/08/04 09:23:36;;;;;;;6.47;1.60;;;25.20;99.90;;;;;;5030137;28;20414;-48
2023/08/04 09:26:02;;;;;;;4.22;1.65;;;25.70;97.80;;;;;;5030449;28;20037;-47
2023/08/04 09:28:28;;;;;;;4.50;1.60;;;26.10;96.50;;;;;;5030559;28;20045;-48
2023/08/04 09:31:08;;;;;;;6.53;1.80;;;26.30;94.90;;;;;;5009308;28;20064;-47
2023/08/04 09:33:37;;;;;;;5.05;1.80;;;26.60;93.20;;;;;;5021675;28;20029;-50
2023/08/04 09:36:02;;;;;;;5.13;1.80;;;26.00;92.50;;;;;;5028832;28;20056;-48
2023/08/04 09:38:28;;;;;;;3.80;1.63;;;25.70;93.40;;;;;;5028948;28;20307;-45
2023/08/04 09:41:10;;;;;;;4.57;1.63;;;25.20;93.40;;;;;;5028933;28;20022;-49
2023/08/04 09:43:46;;;;;;;6.28;1.90;;;25.00;93.80;;;;;;5029405;28;20443;-45
2023/08/04 09:46:12;;;;;;;4.63;1.52;;;25.30;94.30;;;;;;5028423;28;20079;-49
2023/08/04 09:48:37;;;;;;;6.38;1.88;;;25.20;93.80;;;;;;5028575;28;20705;-50
2023/08/04 09:51:07;;;;;;;3.72;1.20;;;25.60;93.90;;;;;;5010393;28;20049;-50
2023/08/04 09:53:43;;;;;;;4.75;1.33;;;26.60;92.60;;;;;;5027639;28;20388;-48
2023/08/04 09:56:10;;;;;;;3.67;1.35;;;27.80;91.40;;;;;;5027012;28;20018;-49
2023/08/04 09:58:36;;;;;;;3.47;1.40;;;28.40;89.70;;;;;;5028354;28;20036;-50
2023/08/04 10:01:02;;;;;;;5.10;1.63;;;28.40;88.70;;;;;;5029515;28;20060;-47
2023/08/04 10:03:28;;;;;;;4.05;1.45;;;28.30;87.00;;;;;;5029078;28;20091;-48
2023/08/04 10:05:59;;;;;;;4.30;1.30;;;29.50;87.70;;;;;;5029646;28;20037;-48
2023/08/04 10:08:29;;;;;;;2.22;1.13;;;29.40;82.20;;;;;;5004979;28;20496;-47
2023/08/04 10:10:56;;;;;;;4.47;1.30;;;29.20;84.90;;;;;;5029750;28;20109;-47
2023/08/04 10:13:23;;;;;;;4.28;1.75;;;28.50;81.80;;;;;;5019793;28;20030;-46
2023/08/04 10:15:50;;;;;;;5.35;1.25;;;27.50;84.50;;;;;;5029675;28;20060;-47
2023/08/04 10:18:15;;;;;;;3.85;1.20;;;26.50;86.40;;;;;;5010824;28;20021;-49
2023/08/04 10:20:41;;;;;;;3.40;1.65;;;25.80;87.90;;;;;;5029150;28;20067;-48
2023/08/04 10:23:06;;;;;;;3.15;1.50;;;25.50;89.30;;;;;;5027044;28;20065;-47
2023/08/04 10:25:32;;;;;;;3.35;1.58;;;26.10;88.90;;;;;;5027637;28;20033;-46
2023/08/04 10:27:58;;;;;;;2.88;1.30;;;25.90;90.30;;;;;;5027506;28;20040;-47
2023/08/04 10:30:24;;;;;;;4.35;1.60;;;26.30;90.00;;;;;;5009832;28;20026;-47
2023/08/04 10:32:50;;;;;;;14.80;2.22;;;27.00;88.00;;;;;;5027141;28;20129;-47
2023/08/04 10:35:18;;;;;;;3.70;1.63;;;26.90;85.20;;;;;;5027554;28;20344;-47
2023/08/04 10:37:58;;;;;;;5.43;1.90;;;26.30;86.30;;;;;;5029123;28;20017;-46
2023/08/04 10:40:29;;;;;;;4.07;1.60;;;26.80;90.50;;;;;;5029164;28;20040;-48
2023/08/04 10:42:59;;;;;;;4.20;1.23;;;27.30;87.10;;;;;;5028952;28;20083;-48
2023/08/04 10:46:03;;;;;;;3.22;1.00;;;26.90;85.80;;;;;;5029465;28;20551;-49
2023/08/04 10:48:29;;;;;;;6.32;1.50;;;27.30;88.70;;;;;;5028944;28;20080;-47
2023/08/04 10:50:54;;;;;;;5.75;1.30;;;28.60;82.20;;;;;;5010781;28;20037;-48
2023/08/04 10:53:20;;;;;;;3.55;1.42;;;29.30;82.60;;;;;;5028381;28;20057;-47
2023/08/04 10:55:57;;;;;;;3.65;1.60;;;29.30;81.00;;;;;;5011203;28;20128;-47
2023/08/04 10:58:24;;;;;;;3.63;1.33;;;28.70;80.30;;;;;;5028787;28;20151;-48
2023/08/04 11:00:51;;;;;;;2.70;1.20;;;28.30;80.20;;;;;;5029077;28;20014;-47
2023/08/04 11:03:21;;;;;;;3.38;1.60;;;27.30;80.50;;;;;;5028227;28;20025;-49
2023/08/04 11:05:49;;;;;;;3.05;0.98;;;26.50;83.00;;;;;;5028280;28;20121;-47
2023/08/04 11:08:15;;;;;;;2.65;1.42;;;27.20;87.00;;;;;;5027527;28;20021;-48
2023/08/04 11:10:48;;;;;;;3.38;1.10;;;28.30;82.10;;;;;;5027556;28;20029;-49
2023/08/04 11:13:20;;;;;;;3.58;1.20;;;29.00;80.90;;;;;;5035529;28;20032;-48
2023/08/04 11:15:47;;;;;;;1.85;1.27;;;28.70;79.60;;;;;;5027587;28;20356;-48
2023/08/04 11:18:24;;;;;;;3.88;1.60;;;28.00;79.70;;;;;;5027542;28;20460;-46
2023/08/04 11:20:50;;;;;;;5.22;1.42;;;26.80;83.10;;;;;;5026375;28;20104;-50
2023/08/04 11:23:26;;;;;;;3.08;1.60;;;26.10;85.20;;;;;;5026534;28;20108;-49
2023/08/04 11:25:52;;;;;;;4.03;1.63;;;25.50;88.00;;;;;;5025880;28;20108;-48
2023/08/04 11:28:19;;;;;;;2.65;1.30;;;24.90;89.10;;;;;;5009501;28;20124;-48
2023/08/04 11:30:45;;;;;;;5.90;1.73;;;24.20;90.60;;;;;;5028327;28;20034;-48
2023/08/04 11:33:11;;;;;;;4.57;1.58;;;23.60;91.80;;;;;;5026731;28;20111;-49
2023/08/04 11:35:36;;;;;;;4.63;2.10;;;23.30;93.50;;;;;;5027302;28;20079;-49
2023/08/04 11:38:03;;;;;;;5.05;1.92;;;23.20;93.20;;;;;;5009726;28;20028;-48
2023/08/04 11:40:29;;;;;;;5.22;1.90;;;23.10;93.70;;;;;;5028359;28;20063;-50
2023/08/04 11:43:01;;;;;;;3.78;1.85;;;23.20;93.90;;;;;;5027760;28;20021;-46
2023/08/04 11:45:30;;;;;;;5.15;1.83;;;23.20;93.10;;;;;;5028737;28;20427;-46
2023/08/04 11:47:57;;;;;;;5.72;1.80;;;23.20;94.60;;;;;;5028242;28;20026;-48
2023/08/04 11:50:24;;;;;;;5.30;1.35;;;23.30;94.00;;;;;;5027304;28;20032;-47
2023/08/04 11:52:50;;;;;;;5.47;1.55;;;23.20;94.10;;;;;;5008589;28;20026;-47
2023/08/04 11:55:15;;;;;;;8.20;1.88;;;23.10;93.10;;;;;;5027498;28;20112;-46
2023/08/04 11:57:51;;;;;;;3.20;1.50;;;23.00;92.70;;;;;;5010622;28;20435;-46
2023/08/04 12:00:30;;;;;;;3.47;1.42;;;23.10;93.30;;;;;;5028589;28;20021;-46
2023/08/04 12:03:01;;;;;;;2.42;1.73;;;23.20;93.20;;;;;;5027726;28;20029;-49
2023/08/04 12:05:31;;;;;;;2.30;1.10;;;23.30;93.70;;;;;;5010493;28;20510;-49
2023/08/04 12:08:11;;;;;;;3.88;1.60;;;23.40;92.80;;;;;;5028051;28;20022;-48
2023/08/04 12:10:37;;;;;;;2.80;1.58;;;23.50;91.90;;;;;;5010360;28;20029;-47
2023/08/04 12:13:03;;;;;;;4.18;1.42;;;24.00;92.40;;;;;;5027809;28;20091;-48
2023/08/04 12:15:28;;;;;;;3.42;1.48;;;24.90;91.50;;;;;;5028450;28;20133;-46
2023/08/04 12:17:54;;;;;;;2.10;1.38;;;25.60;90.60;;;;;;5028249;28;20018;-50
2023/08/04 12:20:19;;;;;;;3.83;1.60;;;26.00;90.20;;;;;;5028039;28;20025;-47
2023/08/04 12:22:45;;;;;;;2.13;1.15;;;26.10;90.10;;;;;;5027821;28;20033;-48
2023/08/04 12:25:12;;;;;;;3.58;1.48;;;26.10;87.10;;;;;;5028059;28;20435;-47
2023/08/04 12:27:37;;;;;;;3.25;1.40;;;26.30;87.90;;;;;;5027864;28;20108;-45
2023/08/04 12:30:03;;;;;;;3.55;1.20;;;26.10;86.00;;;;;;5028198;28;20112;-49
2023/08/04 12:32:29;;;;;;;3.10;1.35;;;26.00;88.50;;;;;;5027681;28;20065;-46
2023/08/04 12:34:57;;;;;;;2.20;1.48;;;25.80;87.20;;;;;;5010047;28;20033;-47
2023/08/04 12:37:22;;;;;;;4.65;1.60;;;26.30;90.20;;;;;;5029869;28;20035;-48